Time;durP1;ratioP1;P1;durP2;ratioP2;P2;SDS_P1;SDS_P2;PMS_P1;PMS_P2;Temp;Humidity;BMP_temperature;BMP_pressure;BME280_temperature;BME280_humidity;BME280_pressure;Samples;Min_cycle;Max_cycle;Signal;HPM_P1;HPM_P2
2021/12/02 00:04:05;;;;;;;15.30;5.70;;;23.60;55.90;;;;;;220284;1306;22636;-54
2021/12/02 00:09:10;;;;;;;14.90;5.80;;;23.60;56.00;;;;;;220202;1306;22580;-55
2021/12/02 00:14:24;;;;;;;12.50;5.30;;;23.50;55.90;;;;;;220248;1306;22733;-52
2021/12/02 00:25:01;;;;;;;13.10;5.60;;;23.60;55.70;;;;;;220234;1306;22739;-55
2021/12/02 00:30:08;;;;;;;11.50;5.20;;;23.60;55.50;;;;;;220348;1306;22588;-53
2021/12/02 00:35:13;;;;;;;11.30;5.00;;;23.60;55.30;;;;;;220351;1306;22640;-54
2021/12/02 00:40:17;;;;;;;10.60;5.20;;;23.60;55.10;;;;;;220361;1306;22592;-55
2021/12/02 00:45:21;;;;;;;11.70;5.00;;;23.60;55.00;;;;;;220293;1306;22671;-53
2021/12/02 00:50:25;;;;;;;8.80;4.80;;;23.60;54.90;;;;;;220323;1306;22573;-55
2021/12/02 00:55:29;;;;;;;10.60;4.80;;;23.60;54.80;;;;;;220330;1306;22558;-55
2021/12/02 01:00:39;;;;;;;12.00;5.30;;;23.60;54.80;;;;;;220209;1306;22594;-56
2021/12/02 01:05:44;;;;;;;11.80;4.70;;;23.60;54.60;;;;;;220273;1306;22615;-55
2021/12/02 01:10:49;;;;;;;8.90;4.80;;;23.60;54.90;;;;;;220276;1306;24251;-54
2021/12/02 01:15:53;;;;;;;10.00;4.60;;;23.60;54.40;;;;;;220295;1307;22586;-55
2021/12/02 01:20:58;;;;;;;8.80;4.40;;;23.60;54.40;;;;;;220321;1311;22635;-55
2021/12/02 01:26:06;;;;;;;9.70;4.60;;;23.60;54.30;;;;;;220212;1306;22657;-54
2021/12/02 01:31:12;;;;;;;8.10;4.20;;;23.60;54.40;;;;;;220265;1306;24394;-56
2021/12/02 01:36:17;;;;;;;9.70;4.30;;;23.50;54.40;;;;;;220268;1310;22759;-56
2021/12/02 01:41:22;;;;;;;9.00;4.50;;;23.60;54.20;;;;;;220292;1306;22756;-54
2021/12/02 01:46:26;;;;;;;9.40;4.30;;;23.60;54.00;;;;;;220133;1309;22576;-54
2021/12/02 01:51:31;;;;;;;7.60;3.90;;;23.60;53.80;;;;;;220309;1306;24257;-54
2021/12/02 01:56:45;;;;;;;7.30;3.70;;;23.60;53.60;;;;;;220328;1306;22570;-54
2021/12/02 02:01:58;;;;;;;7.00;3.70;;;23.60;53.50;;;;;;220263;1307;22652;-55
2021/12/02 02:07:12;;;;;;;7.70;3.90;;;23.60;53.40;;;;;;220301;1311;22584;-55
2021/12/02 02:12:15;;;;;;;7.30;3.50;;;23.60;53.30;;;;;;220216;1313;22560;-53
2021/12/02 02:17:30;;;;;;;6.90;3.80;;;23.70;53.20;;;;;;220271;1310;22570;-53
2021/12/02 02:22:34;;;;;;;6.60;3.60;;;23.60;53.20;;;;;;220320;1306;22636;-55
2021/12/02 02:27:38;;;;;;;7.60;3.70;;;23.60;53.20;;;;;;220290;1306;22651;-56
2021/12/02 02:32:42;;;;;;;7.40;3.40;;;23.60;52.90;;;;;;220211;1312;22578;-55
2021/12/02 02:37:45;;;;;;;6.60;3.60;;;23.60;53.00;;;;;;220375;1306;22568;-55
2021/12/02 02:42:56;;;;;;;5.90;3.20;;;23.60;52.90;;;;;;220242;1312;22640;-55
2021/12/02 02:48:00;;;;;;;;;;;23.60;52.80;;;;;;220309;1306;22588;-55
2021/12/02 02:53:10;;;;;;;6.00;2.80;;;23.60;52.80;;;;;;220245;1309;22576;-55
2021/12/02 02:58:33;;;;;;;6.40;2.40;;;23.60;52.60;;;;;;220140;1315;22632;-55
2021/12/02 03:09:04;;;;;;;5.00;2.50;;;23.70;52.50;;;;;;220271;1309;22584;-56
2021/12/02 03:14:16;;;;;;;4.70;2.90;;;23.80;52.40;;;;;;220072;1314;22644;-53
2021/12/02 03:19:25;;;;;;;6.60;3.10;;;23.70;52.20;;;;;;220205;1313;22566;-55
2021/12/02 03:24:29;;;;;;;4.90;2.70;;;23.70;52.30;;;;;;220190;1314;22643;-53
2021/12/02 03:29:33;;;;;;;5.40;3.10;;;23.70;52.20;;;;;;220184;1313;24256;-54
2021/12/02 03:34:38;;;;;;;5.70;2.80;;;23.70;52.20;;;;;;220289;1306;25573;-54
2021/12/02 03:39:43;;;;;;;5.40;2.70;;;23.70;52.10;;;;;;220293;1312;25470;-55
2021/12/02 03:44:48;;;;;;;5.50;2.40;;;23.70;52.20;;;;;;220278;1311;23093;-55
2021/12/02 03:49:52;;;;;;;5.90;2.80;;;23.70;52.20;;;;;;220298;1306;22600;-54
2021/12/02 03:54:56;;;;;;;5.10;2.80;;;23.70;52.00;;;;;;220307;1309;22586;-54
2021/12/02 04:00:01;;;;;;;4.50;2.20;;;23.70;52.10;;;;;;220291;1309;22662;-54
2021/12/02 04:05:14;;;;;;;4.90;2.30;;;23.70;52.10;;;;;;220279;1313;22710;-55
2021/12/02 04:10:19;;;;;;;4.40;2.20;;;23.70;52.00;;;;;;220293;1309;23296;-55
2021/12/02 04:15:27;;;;;;;7.60;2.80;;;23.70;52.00;;;;;;220219;1307;22599;-56
2021/12/02 04:20:31;;;;;;;5.30;2.70;;;23.80;51.90;;;;;;220295;1306;22587;-54
2021/12/02 04:25:35;;;;;;;4.00;2.10;;;23.80;51.60;;;;;;220291;1312;22597;-55
2021/12/02 04:30:38;;;;;;;4.70;2.40;;;23.80;51.60;;;;;;220336;1306;22616;-56
2021/12/02 04:35:42;;;;;;;4.60;2.40;;;23.80;51.50;;;;;;220403;1313;22581;-54
2021/12/02 04:40:46;;;;;;;5.70;2.40;;;23.80;51.60;;;;;;220329;1306;23071;-54
2021/12/02 04:45:50;;;;;;;4.30;2.40;;;23.80;51.40;;;;;;220283;1313;22600;-55
2021/12/02 04:50:54;;;;;;;4.30;2.40;;;23.80;51.60;;;;;;220241;1312;22633;-54
2021/12/02 04:55:58;;;;;;;3.70;2.00;;;23.80;51.40;;;;;;220349;1312;22642;-55
2021/12/02 05:01:02;;;;;;;4.10;2.10;;;23.80;51.50;;;;;;220300;1312;22571;-55
2021/12/02 05:06:06;;;;;;;5.10;2.20;;;23.80;51.40;;;;;;220230;1312;25447;-55
2021/12/02 05:11:10;;;;;;;3.50;1.60;;;23.70;51.40;;;;;;220257;1311;22570;-57
2021/12/02 05:16:14;;;;;;;4.80;2.10;;;23.70;51.50;;;;;;220196;1313;22645;-54
2021/12/02 05:21:18;;;;;;;5.60;2.30;;;23.70;51.40;;;;;;220346;1312;22637;-56
2021/12/02 05:26:23;;;;;;;6.30;2.40;;;23.70;51.90;;;;;;220172;1312;22641;-56
2021/12/02 05:31:27;;;;;;;3.60;1.80;;;23.70;51.40;;;;;;220320;1312;22566;-56
2021/12/02 05:36:31;;;;;;;4.00;2.30;;;23.80;51.20;;;;;;220240;1309;24408;-53
2021/12/02 05:41:34;;;;;;;3.30;1.80;;;23.80;50.90;;;;;;220393;1306;22570;-53
2021/12/02 05:46:38;;;;;;;3.90;1.70;;;23.90;50.60;;;;;;220248;1307;22607;-57
2021/12/02 05:51:42;;;;;;;3.30;1.90;;;23.90;50.60;;;;;;220338;1306;22689;-54
2021/12/02 05:56:46;;;;;;;3.00;1.70;;;23.90;50.50;;;;;;220331;1310;24329;-54
2021/12/02 06:01:50;;;;;;;4.10;1.80;;;23.80;50.50;;;;;;220423;1312;22659;-54
2021/12/02 06:06:54;;;;;;;4.00;2.10;;;23.80;50.60;;;;;;220368;1312;22557;-56
2021/12/02 06:11:57;;;;;;;3.70;1.80;;;23.80;50.60;;;;;;220329;1312;22608;-55
2021/12/02 06:17:01;;;;;;;3.40;1.60;;;23.90;50.60;;;;;;220357;1312;22568;-54
2021/12/02 06:22:08;;;;;;;2.90;1.60;;;23.80;50.70;;;;;;220146;1312;22569;-53
2021/12/02 06:27:12;;;;;;;3.50;1.70;;;23.90;50.40;;;;;;220111;1315;22586;-55
2021/12/02 06:32:20;;;;;;;4.60;2.00;;;23.80;50.60;;;;;;220140;1315;22652;-55
2021/12/02 06:37:25;;;;;;;4.20;1.80;;;23.90;50.70;;;;;;220151;1310;22598;-56
2021/12/02 06:42:28;;;;;;;3.60;1.70;;;23.80;50.60;;;;;;220198;1312;23622;-56
2021/12/02 06:47:36;;;;;;;3.10;1.50;;;23.80;50.70;;;;;;220141;1307;25425;-55
2021/12/02 06:52:41;;;;;;;2.80;1.50;;;23.80;50.80;;;;;;220305;1306;22583;-54
2021/12/02 06:57:46;;;;;;;2.40;1.40;;;23.90;50.50;;;;;;220367;1306;22582;-55
2021/12/02 07:02:52;;;;;;;3.90;1.70;;;23.90;50.70;;;;;;220308;1311;24342;-53
2021/12/02 07:08:00;;;;;;;4.30;2.20;;;24.00;50.70;;;;;;220289;1306;24132;-55
2021/12/02 07:13:04;;;;;;;4.80;1.90;;;24.00;50.80;;;;;;220281;1306;22574;-58
2021/12/02 07:18:15;;;;;;;5.80;1.90;;;24.10;50.80;;;;;;220283;1306;152214;-56
2021/12/02 07:23:21;;;;;;;7.10;1.80;;;24.10;51.10;;;;;;220213;1306;22698;-56
2021/12/02 07:28:26;;;;;;;5.90;1.90;;;24.10;51.20;;;;;;220220;1306;22682;-55
2021/12/02 07:33:32;;;;;;;6.40;1.80;;;24.00;51.30;;;;;;219961;1312;22603;-56
2021/12/02 07:38:39;;;;;;;3.90;1.70;;;24.00;51.40;;;;;;220071;1306;22731;-57
2021/12/02 07:43:43;;;;;;;14.50;2.30;;;23.90;52.00;;;;;;219929;1309;22643;-58
2021/12/02 07:48:50;;;;;;;4.50;1.60;;;23.80;52.10;;;;;;220104;1308;22660;-58
2021/12/02 07:53:58;;;;;;;5.10;1.80;;;23.70;52.20;;;;;;220167;1312;22587;-57
2021/12/02 07:59:06;;;;;;;7.50;1.90;;;23.70;52.50;;;;;;220282;1309;25574;-56
2021/12/02 08:04:11;;;;;;;6.80;2.10;;;23.50;52.70;;;;;;220157;1312;22556;-56
2021/12/02 08:09:16;;;;;;;10.70;2.20;;;23.40;53.10;;;;;;220094;1308;24256;-55
2021/12/02 08:14:19;;;;;;;8.20;1.70;;;23.30;53.60;;;;;;220148;1307;23354;-55
2021/12/02 08:19:23;;;;;;;6.80;2.10;;;23.20;53.80;;;;;;220027;1309;22590;-54
2021/12/02 08:24:28;;;;;;;5.50;1.70;;;23.20;52.40;;;;;;220055;1315;24287;-54
2021/12/02 08:29:37;;;;;;;5.50;1.30;;;23.00;53.10;;;;;;220148;1315;22713;-53
2021/12/02 08:34:57;;;;;;;4.70;1.30;;;23.00;53.30;;;;;;220230;1315;22786;-54
2021/12/02 08:40:04;;;;;;;5.10;1.50;;;22.90;53.30;;;;;;220225;1308;22580;-52
2021/12/02 08:45:15;;;;;;;3.70;1.50;;;22.90;53.30;;;;;;220231;1313;22661;-53
2021/12/02 08:50:22;;;;;;;11.70;1.70;;;22.90;53.50;;;;;;220425;1313;22638;-52
2021/12/02 08:55:26;;;;;;;5.40;1.40;;;22.70;54.00;;;;;;220287;1311;22585;-52
2021/12/02 09:00:33;;;;;;;5.80;1.60;;;22.60;54.20;;;;;;220255;1306;22630;-51
2021/12/02 09:05:46;;;;;;;5.20;1.90;;;22.60;54.10;;;;;;220380;1313;22577;-53
2021/12/02 09:10:52;;;;;;;6.20;1.40;;;22.60;54.50;;;;;;220204;1311;22762;-55
2021/12/02 09:15:55;;;;;;;4.50;1.30;;;22.50;54.60;;;;;;220099;1306;24364;-56
2021/12/02 09:21:00;;;;;;;5.50;1.60;;;22.50;54.30;;;;;;220278;1307;26432;-53
2021/12/02 09:26:04;;;;;;;3.00;1.30;;;22.60;54.30;;;;;;220374;1312;22590;-53
2021/12/02 09:31:08;;;;;;;3.40;1.70;;;22.50;53.60;;;;;;220361;1306;22602;-55
2021/12/02 09:36:12;;;;;;;4.20;1.50;;;22.50;53.10;;;;;;220350;1312;22770;-54
2021/12/02 09:41:15;;;;;;;2.60;1.40;;;22.60;52.70;;;;;;220386;1313;22638;-55
2021/12/02 09:46:19;;;;;;;4.50;1.40;;;22.70;52.60;;;;;;220239;1313;22728;-55
2021/12/02 09:51:29;;;;;;;4.50;1.40;;;22.70;52.60;;;;;;220169;1312;22568;-54
2021/12/02 09:56:56;;;;;;;3.00;1.30;;;22.70;52.50;;;;;;220271;1314;22583;-55
2021/12/02 10:02:07;;;;;;;4.40;1.00;;;22.50;52.60;;;;;;220181;1307;22573;-54
2021/12/02 10:07:46;;;;;;;4.60;1.50;;;22.40;52.80;;;;;;220172;1315;22584;-55
2021/12/02 10:13:30;;;;;;;4.10;1.40;;;22.50;53.10;;;;;;220216;1315;22604;-54
2021/12/02 10:19:09;;;;;;;5.30;1.50;;;22.50;52.70;;;;;;220233;1316;22656;-56
2021/12/02 10:24:18;;;;;;;3.20;1.40;;;22.40;53.10;;;;;;220260;1316;22593;-55
2021/12/02 10:29:30;;;;;;;3.50;1.50;;;22.30;52.80;;;;;;220242;1315;22853;-54
2021/12/02 10:35:13;;;;;;;5.20;1.30;;;22.40;53.00;;;;;;220274;1316;22592;-54
2021/12/02 10:40:22;;;;;;;2.80;1.40;;;22.50;52.80;;;;;;219804;1315;22593;-55
2021/12/02 10:45:30;;;;;;;6.80;1.60;;;22.80;52.20;;;;;;220236;1314;25617;-52
2021/12/02 10:50:39;;;;;;;3.70;1.50;;;23.00;51.80;;;;;;220278;1313;22913;-52
2021/12/02 10:55:57;;;;;;;3.40;1.40;;;23.20;51.20;;;;;;220246;1315;22603;-53
2021/12/02 11:01:01;;;;;;;3.30;1.40;;;23.60;50.80;;;;;;220208;1314;23008;-54
2021/12/02 11:06:07;;;;;;;3.00;1.50;;;23.70;50.10;;;;;;220273;1314;22663;-53
2021/12/02 11:11:22;;;;;;;3.00;1.40;;;23.70;50.10;;;;;;220263;1306;22768;-53
2021/12/02 11:16:34;;;;;;;3.90;1.20;;;23.90;49.90;;;;;;220375;1313;22790;-54
2021/12/02 11:21:39;;;;;;;2.70;1.30;;;23.80;49.90;;;;;;220360;1313;22668;-54
2021/12/02 11:26:45;;;;;;;2.30;1.10;;;23.80;50.00;;;;;;220421;1313;22713;-53
2021/12/02 11:31:49;;;;;;;2.90;1.50;;;23.90;49.70;;;;;;220410;1313;22611;-51
2021/12/02 11:37:05;;;;;;;3.20;1.20;;;24.10;49.40;;;;;;220266;1306;22582;-54
2021/12/02 11:42:35;;;;;;;2.80;1.40;;;24.00;49.40;;;;;;220317;1312;22621;-53
2021/12/02 11:48:00;;;;;;;;;;;23.90;49.70;;;;;;220260;1315;23020;-54
2021/12/02 11:53:06;;;;;;;1.80;1.10;;;23.90;49.80;;;;;;220268;1313;24296;-54
2021/12/02 11:58:17;;;;;;;2.30;1.00;;;23.80;50.30;;;;;;220285;1314;24246;-53
2021/12/02 12:03:46;;;;;;;2.70;1.20;;;23.60;50.50;;;;;;220128;1309;24244;-54
2021/12/02 12:08:51;;;;;;;2.90;1.30;;;23.50;50.90;;;;;;220395;1314;22564;-53
2021/12/02 12:14:16;;;;;;;2.90;1.40;;;23.50;51.00;;;;;;220190;1309;22584;-54
2021/12/02 12:19:32;;;;;;;4.50;1.30;;;23.50;51.20;;;;;;220187;1309;22593;-54
2021/12/02 12:24:47;;;;;;;2.10;1.10;;;23.30;51.20;;;;;;220274;1314;22629;-55
2021/12/02 12:30:07;;;;;;;2.70;1.20;;;23.30;51.30;;;;;;220080;1316;22715;-51
2021/12/02 12:41:13;;;;;;;2.30;1.10;;;23.30;51.30;;;;;;220313;1314;22610;-54
2021/12/02 12:46:30;;;;;;;2.40;1.20;;;23.30;51.30;;;;;;220278;1314;24541;-55
2021/12/02 12:51:53;;;;;;;3.30;1.30;;;23.30;51.20;;;;;;220225;1309;22675;-55
2021/12/02 12:57:05;;;;;;;2.90;1.00;;;23.30;51.80;;;;;;220176;1314;22638;-55
2021/12/02 13:02:09;;;;;;;3.60;1.20;;;23.20;51.20;;;;;;220250;1314;22587;-54
2021/12/02 13:07:18;;;;;;;2.60;1.30;;;23.20;51.30;;;;;;220268;1315;22617;-55
2021/12/02 13:12:48;;;;;;;2.80;1.00;;;23.10;51.30;;;;;;220028;1313;22596;-54
2021/12/02 13:17:57;;;;;;;2.90;1.20;;;23.10;51.40;;;;;;220265;1314;22637;-54
2021/12/02 13:23:13;;;;;;;2.20;1.10;;;23.10;51.50;;;;;;219951;1314;22643;-54
2021/12/02 13:28:25;;;;;;;2.20;1.20;;;22.90;51.60;;;;;;220279;1315;22726;-55
2021/12/02 13:33:55;;;;;;;2.90;1.20;;;22.90;51.50;;;;;;220208;1314;25411;-54
2021/12/02 13:39:04;;;;;;;2.60;1.10;;;22.90;51.70;;;;;;220235;1309;22683;-56
2021/12/02 13:44:11;;;;;;;4.40;1.30;;;22.80;51.90;;;;;;220160;1315;22594;-55
2021/12/02 13:49:42;;;;;;;2.10;1.10;;;22.70;52.30;;;;;;220287;1314;24383;-55
2021/12/02 13:54:55;;;;;;;3.40;1.30;;;22.60;52.00;;;;;;220234;1314;22672;-55
2021/12/02 14:00:16;;;;;;;3.30;1.20;;;22.60;52.20;;;;;;220240;1315;22585;-54
2021/12/02 14:05:44;;;;;;;3.90;1.10;;;22.60;52.00;;;;;;220291;1315;22579;-52
2021/12/02 14:10:48;;;;;;;2.70;1.50;;;22.60;52.10;;;;;;220275;1313;22578;-52
2021/12/02 14:16:06;;;;;;;3.90;1.40;;;22.50;52.30;;;;;;220251;1315;22613;-54
2021/12/02 14:21:13;;;;;;;3.80;1.20;;;22.40;52.20;;;;;;220260;1315;22574;-55
2021/12/02 14:26:23;;;;;;;2.40;1.20;;;22.30;52.50;;;;;;220224;1315;22593;-54
2021/12/02 14:31:32;;;;;;;2.60;1.20;;;22.20;52.40;;;;;;220241;1314;22577;-54
2021/12/02 14:36:53;;;;;;;3.00;1.10;;;22.10;52.60;;;;;;220254;1315;22581;-55
2021/12/02 14:41:59;;;;;;;3.80;1.00;;;22.00;52.40;;;;;;220241;1315;24450;-54
2021/12/02 14:47:06;;;;;;;1.90;1.00;;;22.00;52.50;;;;;;220118;1316;23049;-52
2021/12/02 14:52:20;;;;;;;5.40;1.30;;;21.90;52.60;;;;;;220218;1314;22609;-53
2021/12/02 14:57:28;;;;;;;2.10;1.10;;;22.00;52.50;;;;;;220296;1315;22599;-52
2021/12/02 15:02:40;;;;;;;2.80;1.20;;;22.40;51.80;;;;;;220241;1314;22580;-54
2021/12/02 15:07:50;;;;;;;3.90;1.20;;;22.70;50.80;;;;;;220080;1309;22593;-53
2021/12/02 15:13:11;;;;;;;2.20;1.00;;;22.90;50.20;;;;;;220333;1313;22994;-52
2021/12/02 15:18:19;;;;;;;;;;;23.10;49.80;;;;;;220072;1315;228796;-54
2021/12/02 15:23:29;;;;;;;2.10;1.00;;;23.30;49.30;;;;;;220245;1315;22571;-55
2021/12/02 15:28:40;;;;;;;2.60;1.10;;;23.40;49.00;;;;;;220325;1315;25502;-54
2021/12/02 15:33:50;;;;;;;2.50;1.10;;;23.50;48.90;;;;;;220269;1314;22611;-54
2021/12/02 15:38:57;;;;;;;2.70;1.00;;;23.50;48.80;;;;;;220158;1313;22645;-52
2021/12/02 15:44:09;;;;;;;2.10;1.20;;;23.50;48.60;;;;;;220301;1314;22618;-56
2021/12/02 15:49:19;;;;;;;2.10;1.00;;;23.50;48.60;;;;;;220263;1314;24257;-55
2021/12/02 15:54:24;;;;;;;2.20;1.30;;;23.50;48.50;;;;;;220244;1315;25405;-54
2021/12/02 15:59:29;;;;;;;2.20;1.20;;;23.50;48.40;;;;;;220327;1314;22624;-54
2021/12/02 16:04:40;;;;;;;2.00;1.20;;;23.60;48.40;;;;;;220320;1314;25924;-55
2021/12/02 16:15:09;;;;;;;3.50;1.20;;;23.60;48.70;;;;;;220264;1315;22584;-56
2021/12/02 16:20:16;;;;;;;2.00;1.00;;;23.60;48.30;;;;;;220359;1315;22574;-56
2021/12/02 16:25:21;;;;;;;2.40;1.20;;;23.60;48.30;;;;;;220088;1316;22595;-55
2021/12/02 16:30:36;;;;;;;3.30;1.30;;;23.60;48.10;;;;;;220219;1314;22538;-54
2021/12/02 16:35:39;;;;;;;2.60;1.10;;;23.60;47.80;;;;;;220098;1306;22588;-56
2021/12/02 16:40:45;;;;;;;5.10;1.50;;;23.70;48.20;;;;;;219913;1306;22619;-54
2021/12/02 16:45:53;;;;;;;3.30;1.80;;;23.70;47.60;;;;;;219836;1311;22623;-55
2021/12/02 16:50:58;;;;;;;2.40;1.20;;;23.80;47.20;;;;;;219676;1306;23187;-55
2021/12/02 16:56:07;;;;;;;5.40;2.40;;;23.80;46.90;;;;;;219805;1306;22604;-56
2021/12/02 17:01:12;;;;;;;5.70;2.50;;;23.90;47.00;;;;;;219663;1306;22646;-54
2021/12/02 17:06:16;;;;;;;4.30;2.00;;;24.00;47.00;;;;;;219735;1306;25554;-55
2021/12/02 17:11:23;;;;;;;5.10;1.80;;;23.90;47.00;;;;;;219825;1306;22618;-55
2021/12/02 17:16:33;;;;;;;;;;;23.90;47.00;;;;;;219704;1306;22487;-54
2021/12/02 17:21:43;;;;;;;4.30;1.80;;;24.00;46.60;;;;;;219794;1306;24927;-56
2021/12/02 17:26:51;;;;;;;4.40;1.90;;;24.00;46.40;;;;;;220173;1310;22608;-56
2021/12/02 17:32:04;;;;;;;7.00;2.00;;;24.00;46.30;;;;;;220305;1314;22638;-56
2021/12/02 17:37:37;;;;;;;;;;;;;;;;;;;;;
2021/12/02 17:42:50;;;;;;;5.40;2.20;;;23.90;46.20;;;;;;219838;1306;22656;-55
2021/12/02 17:48:13;;;;;;;4.30;2.10;;;23.90;46.10;;;;;;219742;1309;22599;-55
2021/12/02 17:53:56;;;;;;;5.90;2.30;;;23.90;45.40;;;;;;220006;1306;23029;-54
2021/12/02 17:59:36;;;;;;;4.80;2.40;;;23.90;45.40;;;;;;220103;1306;22590;-53
2021/12/02 18:04:53;;;;;;;6.10;2.50;;;24.00;45.90;;;;;;220135;1306;22611;-52
2021/12/02 18:10:23;;;;;;;6.70;2.90;;;24.00;45.80;;;;;;220210;1306;25274;-55
2021/12/02 18:15:32;;;;;;;7.20;2.80;;;24.00;45.10;;;;;;220124;1309;22586;-54
2021/12/02 18:21:03;;;;;;;7.70;2.70;;;24.10;44.90;;;;;;220144;1306;22578;-55
2021/12/02 18:26:29;;;;;;;5.90;2.50;;;24.10;45.10;;;;;;220165;1306;24472;-57
2021/12/02 18:31:56;;;;;;;8.70;3.10;;;24.00;45.40;;;;;;219952;1306;22586;-56
2021/12/02 18:37:26;;;;;;;8.40;2.50;;;23.90;45.60;;;;;;220002;1306;22568;-55
2021/12/02 18:42:40;;;;;;;15.80;3.30;;;23.70;45.60;;;;;;220305;1311;22590;-55
2021/12/02 18:48:10;;;;;;;10.90;2.90;;;23.60;45.90;;;;;;220109;1309;22579;-52
2021/12/02 18:53:42;;;;;;;6.20;3.10;;;23.50;46.00;;;;;;219698;1309;22582;-56
2021/12/02 18:58:47;;;;;;;5.90;3.30;;;23.40;46.10;;;;;;219882;1309;23007;-54
2021/12/02 19:04:06;;;;;;;7.30;2.80;;;23.30;46.20;;;;;;219819;1309;22675;-56
2021/12/02 19:26:11;;;;;;;10.30;3.40;;;22.90;46.70;;;;;;220055;1314;23037;-54
2021/12/02 19:31:27;;;;;;;9.40;3.70;;;22.90;46.80;;;;;;220019;1309;22592;-54
2021/12/02 19:36:34;;;;;;;20.40;4.20;;;22.80;47.80;;;;;;220166;1309;22582;-55
2021/12/02 19:41:47;;;;;;;14.30;4.40;;;22.90;48.60;;;;;;220058;1309;22603;-56
2021/12/02 19:46:57;;;;;;;13.70;4.60;;;22.90;48.70;;;;;;220019;1306;25476;-57
2021/12/02 19:52:11;;;;;;;13.40;4.60;;;22.90;48.70;;;;;;220059;1306;22714;-55
2021/12/02 19:57:22;;;;;;;12.20;4.60;;;22.90;48.90;;;;;;219868;1315;22768;-56
2021/12/02 20:02:33;;;;;;;15.50;4.70;;;22.80;48.80;;;;;;220136;1315;22728;-54
2021/12/02 20:07:37;;;;;;;13.70;4.70;;;22.70;48.70;;;;;;220290;1306;24312;-55
2021/12/02 20:12:53;;;;;;;13.30;5.00;;;22.60;48.80;;;;;;220172;1313;24280;-56
2021/12/02 20:18:14;;;;;;;12.20;4.70;;;22.50;48.80;;;;;;220300;1314;22577;-55
2021/12/02 20:23:32;;;;;;;12.90;5.30;;;22.50;48.50;;;;;;220646;1296;22762;-56
2021/12/02 20:28:53;;;;;;;16.30;5.10;;;22.80;47.90;;;;;;213916;1306;22817;-56
2021/12/02 20:34:08;;;;;;;13.50;4.90;;;23.20;47.10;;;;;;213336;1306;103429;-56
2021/12/02 20:39:20;;;;;;;14.70;5.10;;;23.50;46.60;;;;;;212722;1314;517534;-57
2021/12/02 20:44:45;;;;;;;12.30;5.00;;;23.70;46.20;;;;;;213338;1314;22619;-55
2021/12/02 20:49:57;;;;;;;15.70;5.60;;;23.80;46.30;;;;;;213267;1314;22626;-54
2021/12/02 20:55:09;;;;;;;12.40;5.60;;;24.00;47.20;;;;;;212816;1315;25255;-55
2021/12/02 21:00:32;;;;;;;14.40;5.20;;;24.10;47.40;;;;;;213094;1315;22838;-55
2021/12/02 21:05:55;;;;;;;11.10;4.90;;;24.00;48.00;;;;;;213099;1314;25530;-55
2021/12/02 21:11:12;;;;;;;14.40;5.30;;;23.90;48.00;;;;;;212869;1314;24232;-53
2021/12/02 21:16:24;;;;;;;12.50;5.00;;;23.90;49.10;;;;;;213024;1314;22764;-55
2021/12/02 21:21:53;;;;;;;15.20;5.10;;;24.00;49.10;;;;;;213401;1320;24286;-56
2021/12/02 21:27:50;;;;;;;13.10;5.00;;;24.00;48.70;;;;;;213082;1315;25262;-56
2021/12/02 21:33:13;;;;;;;11.00;4.50;;;24.00;48.60;;;;;;213339;1312;22625;-57
2021/12/02 21:38:28;;;;;;;10.90;5.10;;;24.00;48.90;;;;;;213449;1316;24319;-56
2021/12/02 21:43:46;;;;;;;12.60;4.30;;;23.90;48.70;;;;;;213213;1312;22960;-57
2021/12/02 21:49:12;;;;;;;9.40;4.90;;;23.80;49.00;;;;;;213510;1312;22603;-52
2021/12/02 21:54:25;;;;;;;10.40;4.10;;;23.70;49.30;;;;;;213433;1315;24282;-57
2021/12/02 21:59:44;;;;;;;9.10;4.00;;;23.50;49.30;;;;;;213330;1319;22600;-54
2021/12/02 22:04:50;;;;;;;11.60;4.30;;;23.40;49.50;;;;;;213442;1318;22739;-55
2021/12/02 22:09:55;;;;;;;8.80;4.40;;;23.30;49.70;;;;;;213243;1312;25454;-56
2021/12/02 22:15:05;;;;;;;10.70;4.00;;;23.20;50.30;;;;;;213176;1316;25352;-53
2021/12/02 22:20:14;;;;;;;9.40;4.20;;;23.10;50.50;;;;;;213328;1315;26372;-55
2021/12/02 22:25:23;;;;;;;9.20;3.50;;;23.10;50.30;;;;;;213489;1312;22588;-57
2021/12/02 22:30:33;;;;;;;9.50;3.80;;;22.90;50.50;;;;;;213185;1315;22756;-57
2021/12/02 22:35:43;;;;;;;12.70;4.20;;;22.80;50.60;;;;;;214094;1318;23131;-55
2021/12/02 22:40:53;;;;;;;12.70;4.20;;;22.70;50.70;;;;;;213528;1312;22658;-56
2021/12/02 22:46:01;;;;;;;9.00;4.30;;;22.60;50.80;;;;;;213252;1315;26513;-57
2021/12/02 22:51:06;;;;;;;11.50;3.90;;;22.60;51.80;;;;;;213628;1313;24292;-55
2021/12/02 22:56:12;;;;;;;11.00;4.00;;;22.50;52.20;;;;;;213348;1315;24468;-55
2021/12/02 23:01:21;;;;;;;10.90;4.00;;;22.50;52.40;;;;;;213441;1316;22583;-53
2021/12/02 23:06:28;;;;;;;11.50;4.30;;;22.40;52.60;;;;;;213166;1315;27629;-55
2021/12/02 23:11:32;;;;;;;10.50;4.10;;;22.30;52.80;;;;;;213647;1312;25503;-53
2021/12/02 23:16:40;;;;;;;11.50;4.00;;;22.30;52.90;;;;;;213338;1315;22596;-53
2021/12/02 23:21:49;;;;;;;10.20;4.40;;;22.30;53.00;;;;;;213063;1318;223559;-55
2021/12/02 23:27:00;;;;;;;8.40;3.60;;;22.40;52.80;;;;;;213143;1315;22564;-55
2021/12/02 23:32:07;;;;;;;9.50;3.70;;;22.70;52.00;;;;;;213591;1318;22589;-55
2021/12/02 23:37:11;;;;;;;8.50;3.20;;;23.10;51.20;;;;;;213698;1318;22640;-56
2021/12/02 23:42:15;;;;;;;5.90;3.30;;;23.40;50.70;;;;;;213751;1320;23043;-54
2021/12/02 23:47:18;;;;;;;10.10;3.50;;;23.60;50.20;;;;;;213602;1320;23227;-52
2021/12/02 23:52:22;;;;;;;8.20;3.30;;;23.80;49.90;;;;;;213638;1318;22587;-52
2021/12/02 23:57:26;;;;;;;9.40;3.30;;;23.80;49.70;;;;;;213405;1318;23094;-53
